sensor_id;sensor_type;location;lat;lon;timestamp;pressure;altitude;pressure_sealevel;temperature;humidity
57192;BME280;43052;52.588;13.396;2023-03-31T00:01:06;100086.81;;;10.61;73.01
57192;BME280;43052;52.588;13.396;2023-03-31T00:03:31;100081.56;;;10.63;73.10
57192;BME280;43052;52.588;13.396;2023-03-31T00:05:58;100078.06;;;10.64;72.64
57192;BME280;43052;52.588;13.396;2023-03-31T00:08:25;100067.72;;;10.56;72.93
57192;BME280;43052;52.588;13.396;2023-03-31T00:10:57;100063.28;;;10.61;73.02
57192;BME280;43052;52.588;13.396;2023-03-31T00:13:24;100070.16;;;10.67;72.83
57192;BME280;43052;52.588;13.396;2023-03-31T00:15:55;100074.50;;;10.68;72.94
57192;BME280;43052;52.588;13.396;2023-03-31T00:18:20;100048.50;;;10.59;72.76
57192;BME280;43052;52.588;13.396;2023-03-31T00:20:46;100072.69;;;10.72;72.79
57192;BME280;43052;52.588;13.396;2023-03-31T00:23:12;100064.09;;;10.63;72.94
57192;BME280;43052;52.588;13.396;2023-03-31T00:25:39;100066.72;;;10.65;72.74
57192;BME280;43052;52.588;13.396;2023-03-31T00:28:07;100059.75;;;10.64;72.75
57192;BME280;43052;52.588;13.396;2023-03-31T00:30:32;100057.16;;;10.62;72.57
57192;BME280;43052;52.588;13.396;2023-03-31T00:32:57;100060.53;;;10.69;72.64
57192;BME280;43052;52.588;13.396;2023-03-31T00:35:22;100058.00;;;10.66;72.39
57192;BME280;43052;52.588;13.396;2023-03-31T00:37:48;100044.97;;;10.63;72.56
57192;BME280;43052;52.588;13.396;2023-03-31T00:40:13;100031.00;;;10.62;72.28
57192;BME280;43052;52.588;13.396;2023-03-31T00:42:42;100063.03;;;10.77;72.23
57192;BME280;43052;52.588;13.396;2023-03-31T00:47:41;100034.50;;;10.63;72.22
57192;BME280;43052;52.588;13.396;2023-03-31T00:50:19;100040.66;;;10.60;72.23
57192;BME280;43052;52.588;13.396;2023-03-31T00:52:48;100056.19;;;10.68;72.10
57192;BME280;43052;52.588;13.396;2023-03-31T00:55:17;100030.28;;;10.54;72.23
57192;BME280;43052;52.588;13.396;2023-03-31T00:57:45;99998.34;;;10.35;72.04
57192;BME280;43052;52.588;13.396;2023-03-31T01:00:13;100046.72;;;10.61;72.11
57192;BME280;43052;52.588;13.396;2023-03-31T01:02:44;100045.97;;;10.56;72.18
57192;BME280;43052;52.588;13.396;2023-03-31T01:05:25;100024.44;;;10.40;72.27
57192;BME280;43052;52.588;13.396;2023-03-31T01:07:52;100031.34;;;10.42;72.31
57192;BME280;43052;52.588;13.396;2023-03-31T01:10:19;100033.03;;;10.46;72.42
57192;BME280;43052;52.588;13.396;2023-03-31T01:12:49;100007.94;;;10.33;72.35
57192;BME280;43052;52.588;13.396;2023-03-31T01:15:15;100002.94;;;10.19;72.40
57192;BME280;43052;52.588;13.396;2023-03-31T01:17:41;99995.31;;;10.05;72.31
57192;BME280;43052;52.588;13.396;2023-03-31T01:20:40;100016.28;;;10.02;72.86
57192;BME280;43052;52.588;13.396;2023-03-31T01:23:35;99995.75;;;9.77;72.73
57192;BME280;43052;52.588;13.396;2023-03-31T01:26:19;99976.88;;;9.56;73.06
57192;BME280;43052;52.588;13.396;2023-03-31T01:29:03;100000.34;;;9.60;73.21
57192;BME280;43052;52.588;13.396;2023-03-31T01:31:46;99993.59;;;9.45;73.45
57192;BME280;43052;52.588;13.396;2023-03-31T01:42:38;99997.19;;;9.34;73.79
57192;BME280;43052;52.588;13.396;2023-03-31T01:45:35;100001.56;;;9.34;74.01
57192;BME280;43052;52.588;13.396;2023-03-31T01:48:31;99990.28;;;9.29;73.87
57192;BME280;43052;52.588;13.396;2023-03-31T01:51:15;99981.75;;;9.16;74.12
57192;BME280;43052;52.588;13.396;2023-03-31T01:53:50;99968.81;;;9.09;74.08
57192;BME280;43052;52.588;13.396;2023-03-31T01:56:34;99974.91;;;9.07;74.32
57192;BME280;43052;52.588;13.396;2023-03-31T02:01:38;99983.50;;;9.17;74.49
57192;BME280;43052;52.588;13.396;2023-03-31T02:04:16;99961.88;;;9.07;74.01
57192;BME280;43052;52.588;13.396;2023-03-31T02:06:46;99980.81;;;9.21;74.15
57192;BME280;43052;52.588;13.396;2023-03-31T02:09:20;99960.13;;;9.07;74.20
57192;BME280;43052;52.588;13.396;2023-03-31T02:11:47;99964.47;;;9.08;74.22
57192;BME280;43052;52.588;13.396;2023-03-31T02:14:17;99966.13;;;9.14;74.33
57192;BME280;43052;52.588;13.396;2023-03-31T02:16:48;99949.78;;;9.01;74.69
57192;BME280;43052;52.588;13.396;2023-03-31T02:19:16;99953.13;;;9.11;74.41
57192;BME280;43052;52.588;13.396;2023-03-31T02:21:46;99952.97;;;9.22;74.63
57192;BME280;43052;52.588;13.396;2023-03-31T02:24:15;99957.25;;;9.29;74.60
57192;BME280;43052;52.588;13.396;2023-03-31T02:26:55;99943.38;;;9.24;74.55
57192;BME280;43052;52.588;13.396;2023-03-31T02:29:23;99938.19;;;9.22;74.71
57192;BME280;43052;52.588;13.396;2023-03-31T02:31:54;99954.63;;;9.31;74.62
57192;BME280;43052;52.588;13.396;2023-03-31T02:34:20;99935.50;;;9.29;74.68
57192;BME280;43052;52.588;13.396;2023-03-31T02:36:47;99961.44;;;9.41;74.74
57192;BME280;43052;52.588;13.396;2023-03-31T02:39:20;99931.06;;;9.35;74.61
57192;BME280;43052;52.588;13.396;2023-03-31T02:41:48;99940.44;;;9.49;74.56
57192;BME280;43052;52.588;13.396;2023-03-31T02:44:14;99940.31;;;9.60;74.72
57192;BME280;43052;52.588;13.396;2023-03-31T02:46:40;99918.50;;;9.62;74.32
57192;BME280;43052;52.588;13.396;2023-03-31T02:49:07;99908.84;;;9.67;74.32
57192;BME280;43052;52.588;13.396;2023-03-31T02:51:48;99908.72;;;9.78;74.28
57192;BME280;43052;52.588;13.396;2023-03-31T03:00:49;99925.53;;;10.13;73.50
57192;BME280;43052;52.588;13.396;2023-03-31T03:03:01;99924.56;;;10.19;73.38
57192;BME280;43052;52.588;13.396;2023-03-31T03:08:51;99911.47;;;10.21;73.20
57192;BME280;43052;52.588;13.396;2023-03-31T03:13:57;99923.50;;;10.31;73.02
57192;BME280;43052;52.588;13.396;2023-03-31T03:16:27;99887.97;;;10.19;72.77
57192;BME280;43052;52.588;13.396;2023-03-31T03:18:58;99898.38;;;10.22;72.95
57192;BME280;43052;52.588;13.396;2023-03-31T03:21:24;99906.94;;;10.30;72.81
57192;BME280;43052;52.588;13.396;2023-03-31T03:23:49;99905.97;;;10.38;72.88
57192;BME280;43052;52.588;13.396;2023-03-31T03:26:15;99872.28;;;10.19;72.71
57192;BME280;43052;52.588;13.396;2023-03-31T03:28:46;99892.06;;;10.34;72.50
57192;BME280;43052;52.588;13.396;2023-03-31T03:31:11;99875.53;;;10.32;72.50
57192;BME280;43052;52.588;13.396;2023-03-31T03:33:37;99887.63;;;10.41;72.31
57192;BME280;43052;52.588;13.396;2023-03-31T03:36:03;99877.94;;;10.46;72.06
57192;BME280;43052;52.588;13.396;2023-03-31T03:38:28;99866.72;;;10.41;72.26
57192;BME280;43052;52.588;13.396;2023-03-31T03:40:53;99886.50;;;10.54;71.92
57192;BME280;43052;52.588;13.396;2023-03-31T03:43:18;99873.47;;;10.53;72.10
57192;BME280;43052;52.588;13.396;2023-03-31T03:45:50;99880.28;;;10.61;71.88
57192;BME280;43052;52.588;13.396;2023-03-31T03:48:16;99869.81;;;10.61;71.83
57192;BME280;43052;52.588;13.396;2023-03-31T03:50:41;99870.72;;;10.60;71.68
57192;BME280;43052;52.588;13.396;2023-03-31T03:53:07;99883.56;;;10.71;71.55
57192;BME280;43052;52.588;13.396;2023-03-31T03:55:32;99878.41;;;10.66;71.43
57192;BME280;43052;52.588;13.396;2023-03-31T03:57:58;99882.63;;;10.74;71.64
57192;BME280;43052;52.588;13.396;2023-03-31T04:00:23;99861.88;;;10.64;71.56
57192;BME280;43052;52.588;13.396;2023-03-31T04:02:48;99864.31;;;10.75;71.51
57192;BME280;43052;52.588;13.396;2023-03-31T04:05:13;99846.25;;;10.63;71.42
57192;BME280;43052;52.588;13.396;2023-03-31T04:07:39;99821.13;;;10.56;71.19
57192;BME280;43052;52.588;13.396;2023-03-31T04:10:05;99845.25;;;10.69;71.06
57192;BME280;43052;52.588;13.396;2023-03-31T04:12:35;99852.03;;;10.77;71.01
57192;BME280;43052;52.588;13.396;2023-03-31T04:15:00;99839.19;;;10.66;71.14
57192;BME280;43052;52.588;13.396;2023-03-31T04:17:26;99850.41;;;10.73;70.99
57192;BME280;43052;52.588;13.396;2023-03-31T04:20:00;99833.31;;;10.55;71.09
57192;BME280;43052;52.588;13.396;2023-03-31T04:22:32;99834.16;;;10.57;71.20
57192;BME280;43052;52.588;13.396;2023-03-31T04:25:03;99846.19;;;10.64;71.32
57192;BME280;43052;52.588;13.396;2023-03-31T04:27:29;99828.09;;;10.57;71.48
57192;BME280;43052;52.588;13.396;2023-03-31T04:29:55;99831.50;;;10.60;71.26
57192;BME280;43052;52.588;13.396;2023-03-31T04:32:20;99813.44;;;10.48;71.51
57192;BME280;43052;52.588;13.396;2023-03-31T04:34:46;99833.34;;;10.54;71.55
57192;BME280;43052;52.588;13.396;2023-03-31T04:37:12;99833.31;;;10.57;71.50
57192;BME280;43052;52.588;13.396;2023-03-31T04:39:37;99816.88;;;10.50;71.72
57192;BME280;43052;52.588;13.396;2023-03-31T04:42:02;99814.22;;;10.53;71.64
57192;BME280;43052;52.588;13.396;2023-03-31T04:44:29;99814.06;;;10.59;71.55
57192;BME280;43052;52.588;13.396;2023-03-31T04:46:54;99818.41;;;10.60;71.78
57192;BME280;43052;52.588;13.396;2023-03-31T04:49:20;99785.59;;;10.45;71.64
57192;BME280;43052;52.588;13.396;2023-03-31T04:51:45;99796.72;;;10.57;71.51
57192;BME280;43052;52.588;13.396;2023-03-31T04:54:11;99775.25;;;10.41;71.43
57192;BME280;43052;52.588;13.396;2023-03-31T04:56:36;99807.06;;;10.61;71.55
57192;BME280;43052;52.588;13.396;2023-03-31T04:59:02;99792.28;;;10.59;71.43
57192;BME280;43052;52.588;13.396;2023-03-31T05:01:28;99782.81;;;10.55;71.52
57192;BME280;43052;52.588;13.396;2023-03-31T05:03:58;99762.84;;;10.50;71.49
57192;BME280;43052;52.588;13.396;2023-03-31T05:06:23;99797.22;;;10.74;71.50
57192;BME280;43052;52.588;13.396;2023-03-31T05:08:49;99771.13;;;10.71;71.57
57192;BME280;43052;52.588;13.396;2023-03-31T05:11:14;99776.16;;;10.80;71.49
57192;BME280;43052;52.588;13.396;2023-03-31T05:13:40;99782.31;;;10.78;71.42
57192;BME280;43052;52.588;13.396;2023-03-31T05:16:09;99787.25;;;10.92;71.20
57192;BME280;43052;52.588;13.396;2023-03-31T05:18:38;99775.06;;;10.89;71.34
57192;BME280;43052;52.588;13.396;2023-03-31T05:21:11;99751.88;;;10.75;71.20
57192;BME280;43052;52.588;13.396;2023-03-31T05:23:37;99740.47;;;10.78;70.95
57192;BME280;43052;52.588;13.396;2023-03-31T05:26:03;99765.47;;;10.90;70.92
57192;BME280;43052;52.588;13.396;2023-03-31T05:28:28;99762.31;;;10.75;71.30
57192;BME280;43052;52.588;13.396;2023-03-31T05:30:53;99760.75;;;10.66;71.22
57192;BME280;43052;52.588;13.396;2023-03-31T05:33:18;99752.19;;;10.60;70.96
57192;BME280;43052;52.588;13.396;2023-03-31T05:35:44;99765.94;;;10.68;71.19
57192;BME280;43052;52.588;13.396;2023-03-31T05:38:09;99752.06;;;10.66;71.28
57192;BME280;43052;52.588;13.396;2023-03-31T05:40:34;99740.63;;;10.70;71.18
57192;BME280;43052;52.588;13.396;2023-03-31T05:42:59;99742.69;;;10.95;70.95
57192;BME280;43052;52.588;13.396;2023-03-31T05:45:25;99744.59;;;11.24;70.32
57192;BME280;43052;52.588;13.396;2023-03-31T05:47:50;99727.75;;;11.36;70.02
57192;BME280;43052;52.588;13.396;2023-03-31T05:50:15;99737.72;;;11.55;69.69
57192;BME280;43052;52.588;13.396;2023-03-31T05:52:40;99749.56;;;11.70;69.38
57192;BME280;43052;52.588;13.396;2023-03-31T05:55:06;99733.53;;;11.82;68.97
57192;BME280;43052;52.588;13.396;2023-03-31T05:57:32;99728.53;;;12.06;68.66
57192;BME280;43052;52.588;13.396;2023-03-31T05:59:57;99720.94;;;12.28;68.17
57192;BME280;43052;52.588;13.396;2023-03-31T06:02:22;99728.03;;;12.54;67.94
57192;BME280;43052;52.588;13.396;2023-03-31T06:04:47;99743.28;;;12.98;67.37
57192;BME280;43052;52.588;13.396;2023-03-31T06:07:13;99731.81;;;13.29;66.43
57192;BME280;43052;52.588;13.396;2023-03-31T06:09:38;99696.00;;;13.27;65.99
57192;BME280;43052;52.588;13.396;2023-03-31T06:12:04;99707.06;;;13.37;65.66
57192;BME280;43052;52.588;13.396;2023-03-31T06:14:30;99706.63;;;13.24;65.41
57192;BME280;43052;52.588;13.396;2023-03-31T06:16:55;99708.03;;;13.07;65.56
57192;BME280;43052;52.588;13.396;2023-03-31T06:19:20;99696.22;;;12.94;65.83
57192;BME280;43052;52.588;13.396;2023-03-31T06:21:46;99708.19;;;13.03;65.52
57192;BME280;43052;52.588;13.396;2023-03-31T06:24:11;99692.69;;;13.22;65.21
57192;BME280;43052;52.588;13.396;2023-03-31T06:26:36;99695.81;;;13.60;64.42
57192;BME280;43052;52.588;13.396;2023-03-31T06:29:02;99685.16;;;14.36;63.23
57192;BME280;43052;52.588;13.396;2023-03-31T06:31:27;99697.78;;;15.16;61.55
57192;BME280;43052;52.588;13.396;2023-03-31T06:33:52;99683.84;;;15.35;59.87
57192;BME280;43052;52.588;13.396;2023-03-31T06:36:19;99665.69;;;15.29;59.46
57192;BME280;43052;52.588;13.396;2023-03-31T06:38:47;99696.50;;;15.47;59.18
57192;BME280;43052;52.588;13.396;2023-03-31T06:41:14;99694.00;;;15.44;58.81
57192;BME280;43052;52.588;13.396;2023-03-31T06:43:40;99672.72;;;15.49;58.82
57192;BME280;43052;52.588;13.396;2023-03-31T06:46:06;99673.56;;;16.10;58.39
57192;BME280;43052;52.588;13.396;2023-03-31T06:48:32;99673.19;;;17.29;55.65
57192;BME280;43052;52.588;13.396;2023-03-31T06:51:02;99671.56;;;18.29;53.17
57192;BME280;43052;52.588;13.396;2023-03-31T06:53:28;99682.31;;;18.42;52.50
57192;BME280;43052;52.588;13.396;2023-03-31T06:55:54;99681.19;;;18.30;51.92
57192;BME280;43052;52.588;13.396;2023-03-31T06:58:19;99672.88;;;18.84;51.05
57192;BME280;43052;52.588;13.396;2023-03-31T07:00:44;99650.31;;;19.68;49.67
57192;BME280;43052;52.588;13.396;2023-03-31T07:03:13;99662.75;;;21.74;46.19
57192;BME280;43052;52.588;13.396;2023-03-31T07:05:40;99649.72;;;23.76;41.85
57192;BME280;43052;52.588;13.396;2023-03-31T07:08:06;99643.44;;;25.53;38.17
57192;BME280;43052;52.588;13.396;2023-03-31T07:10:31;99644.25;;;26.66;35.69
57192;BME280;43052;52.588;13.396;2023-03-31T07:12:57;99636.31;;;27.63;34.31
57192;BME280;43052;52.588;13.396;2023-03-31T07:15:23;99640.28;;;28.70;31.99
57192;BME280;43052;52.588;13.396;2023-03-31T07:17:49;99638.88;;;29.73;30.65
57192;BME280;43052;52.588;13.396;2023-03-31T07:20:26;99640.75;;;29.73;29.73
57192;BME280;43052;52.588;13.396;2023-03-31T07:22:52;99629.94;;;29.20;29.76
57192;BME280;43052;52.588;13.396;2023-03-31T07:25:17;99630.88;;;28.10;30.27
57192;BME280;43052;52.588;13.396;2023-03-31T07:27:43;99633.00;;;27.12;31.55
57192;BME280;43052;52.588;13.396;2023-03-31T07:30:11;99628.41;;;27.42;31.38
57192;BME280;43052;52.588;13.396;2023-03-31T07:32:36;99619.31;;;28.10;30.35
57192;BME280;43052;52.588;13.396;2023-03-31T07:35:06;99628.41;;;27.89;30.52
57192;BME280;43052;52.588;13.396;2023-03-31T07:37:35;99624.69;;;27.62;30.70
57192;BME280;43052;52.588;13.396;2023-03-31T07:40:01;99603.28;;;27.33;30.52
57192;BME280;43052;52.588;13.396;2023-03-31T07:42:26;99620.00;;;26.87;31.41
57192;BME280;43052;52.588;13.396;2023-03-31T07:44:52;99610.88;;;26.20;32.22
57192;BME280;43052;52.588;13.396;2023-03-31T07:47:17;99614.53;;;26.09;32.09
57192;BME280;43052;52.588;13.396;2023-03-31T07:49:42;99601.81;;;25.70;32.90
57192;BME280;43052;52.588;13.396;2023-03-31T07:52:08;99588.78;;;25.87;32.45
57192;BME280;43052;52.588;13.396;2023-03-31T07:54:33;99579.34;;;26.72;31.48
57192;BME280;43052;52.588;13.396;2023-03-31T07:56:58;99576.22;;;27.92;30.39
57192;BME280;43052;52.588;13.396;2023-03-31T07:59:25;99585.56;;;28.98;28.25
57192;BME280;43052;52.588;13.396;2023-03-31T08:01:51;99598.34;;;29.48;27.82
57192;BME280;43052;52.588;13.396;2023-03-31T08:04:16;99602.91;;;30.25;26.69
57192;BME280;43052;52.588;13.396;2023-03-31T08:06:41;99592.84;;;30.36;25.92
57192;BME280;43052;52.588;13.396;2023-03-31T08:09:06;99584.03;;;29.39;26.25
57192;BME280;43052;52.588;13.396;2023-03-31T08:11:32;99586.66;;;27.67;28.66
57192;BME280;43052;52.588;13.396;2023-03-31T08:13:58;99588.22;;;25.93;30.98
57192;BME280;43052;52.588;13.396;2023-03-31T08:16:23;99593.69;;;24.54;33.14
57192;BME280;43052;52.588;13.396;2023-03-31T08:18:49;99587.88;;;23.49;34.03
57192;BME280;43052;52.588;13.396;2023-03-31T08:21:14;99575.19;;;22.69;36.04
57192;BME280;43052;52.588;13.396;2023-03-31T08:23:40;99588.94;;;22.39;36.77
57192;BME280;43052;52.588;13.396;2023-03-31T08:26:13;99584.44;;;22.15;37.51
57192;BME280;43052;52.588;13.396;2023-03-31T08:28:39;99570.81;;;22.20;37.50
57192;BME280;43052;52.588;13.396;2023-03-31T08:31:06;99557.19;;;22.36;37.50
57192;BME280;43052;52.588;13.396;2023-03-31T08:33:32;99564.91;;;22.76;36.47
57192;BME280;43052;52.588;13.396;2023-03-31T08:36:05;99550.94;;;23.08;36.37
57192;BME280;43052;52.588;13.396;2023-03-31T08:38:33;99556.44;;;23.29;36.29
57192;BME280;43052;52.588;13.396;2023-03-31T08:41:00;99556.31;;;23.76;35.24
57192;BME280;43052;52.588;13.396;2023-03-31T08:43:36;99548.91;;;23.91;34.84
57192;BME280;43052;52.588;13.396;2023-03-31T08:46:03;99551.47;;;23.82;35.07
57192;BME280;43052;52.588;13.396;2023-03-31T08:48:33;99544.06;;;23.85;35.77
57192;BME280;43052;52.588;13.396;2023-03-31T08:51:09;99529.59;;;24.43;33.72
57192;BME280;43052;52.588;13.396;2023-03-31T08:53:41;99530.38;;;24.87;32.57
57192;BME280;43052;52.588;13.396;2023-03-31T08:56:15;99522.41;;;24.55;33.75
57192;BME280;43052;52.588;13.396;2023-03-31T08:58:44;99524.41;;;23.86;34.50
57192;BME280;43052;52.588;13.396;2023-03-31T09:04:23;99522.63;;;21.74;37.55
57192;BME280;43052;52.588;13.396;2023-03-31T09:06:57;99527.97;;;21.49;38.37
57192;BME280;43052;52.588;13.396;2023-03-31T09:09:44;99514.25;;;21.16;39.17
57192;BME280;43052;52.588;13.396;2023-03-31T09:12:14;99522.56;;;20.98;39.29
57192;BME280;43052;52.588;13.396;2023-03-31T09:14:44;99517.50;;;20.68;40.04
57192;BME280;43052;52.588;13.396;2023-03-31T09:17:23;99521.28;;;20.51;40.27
57192;BME280;43052;52.588;13.396;2023-03-31T09:20:32;99517.66;;;20.52;40.27
57192;BME280;43052;52.588;13.396;2023-03-31T09:25:43;99502.78;;;21.16;39.80
57192;BME280;43052;52.588;13.396;2023-03-31T09:28:21;99491.81;;;21.46;39.02
57192;BME280;43052;52.588;13.396;2023-03-31T09:30:47;99493.22;;;21.76;38.46
57192;BME280;43052;52.588;13.396;2023-03-31T09:33:27;99485.53;;;21.84;38.21
57192;BME280;43052;52.588;13.396;2023-03-31T09:35:57;99487.41;;;22.19;37.69
57192;BME280;43052;52.588;13.396;2023-03-31T09:38:22;99465.34;;;22.06;37.72
57192;BME280;43052;52.588;13.396;2023-03-31T09:40:47;99480.19;;;22.21;38.21
57192;BME280;43052;52.588;13.396;2023-03-31T09:43:23;99472.25;;;22.68;37.07
57192;BME280;43052;52.588;13.396;2023-03-31T09:45:50;99453.03;;;24.11;34.81
57192;BME280;43052;52.588;13.396;2023-03-31T09:48:19;99446.09;;;24.83;33.39
57192;BME280;43052;52.588;13.396;2023-03-31T09:50:49;99453.53;;;24.59;34.07
57192;BME280;43052;52.588;13.396;2023-03-31T09:53:22;99446.97;;;23.42;34.44
57192;BME280;43052;52.588;13.396;2023-03-31T09:55:52;99439.28;;;22.22;37.09
57192;BME280;43052;52.588;13.396;2023-03-31T09:58:18;99443.94;;;21.59;38.64
57192;BME280;43052;52.588;13.396;2023-03-31T10:01:03;99426.84;;;21.24;39.50
57192;BME280;43052;52.588;13.396;2023-03-31T10:03:44;99433.38;;;20.94;39.64
57192;BME280;43052;52.588;13.396;2023-03-31T10:06:13;99433.97;;;20.59;40.26
57192;BME280;43052;52.588;13.396;2023-03-31T10:08:53;99437.72;;;20.03;40.91
57192;BME280;43052;52.588;13.396;2023-03-31T10:11:20;99439.06;;;19.40;41.78
57192;BME280;43052;52.588;13.396;2023-03-31T10:13:58;99429.16;;;18.71;42.79
57192;BME280;43052;52.588;13.396;2023-03-31T10:16:31;99420.25;;;17.97;44.13
57192;BME280;43052;52.588;13.396;2023-03-31T10:19:23;99426.16;;;17.38;45.73
57192;BME280;43052;52.588;13.396;2023-03-31T10:24:47;99412.25;;;16.67;47.42
57192;BME280;43052;52.588;13.396;2023-03-31T10:27:25;99412.94;;;16.37;48.44
57192;BME280;43052;52.588;13.396;2023-03-31T10:29:55;99410.34;;;16.18;49.52
57192;BME280;43052;52.588;13.396;2023-03-31T10:32:29;99419.75;;;16.06;50.58
57192;BME280;43052;52.588;13.396;2023-03-31T10:34:57;99407.66;;;15.83;51.15
57192;BME280;43052;52.588;13.396;2023-03-31T10:37:25;99388.06;;;15.52;52.32
57192;BME280;43052;52.588;13.396;2023-03-31T10:40:25;99409.72;;;15.59;53.22
57192;BME280;43052;52.588;13.396;2023-03-31T10:45:47;99375.94;;;16.04;53.95
57192;BME280;43052;52.588;13.396;2023-03-31T10:48:18;99391.47;;;16.61;53.21
57192;BME280;43052;52.588;13.396;2023-03-31T10:50:47;99393.06;;;17.15;52.27
57192;BME280;43052;52.588;13.396;2023-03-31T10:53:14;99389.69;;;17.91;50.47
57192;BME280;43052;52.588;13.396;2023-03-31T10:56:00;99365.47;;;18.29;50.59
57192;BME280;43052;52.588;13.396;2023-03-31T10:58:38;99383.25;;;18.71;49.14
57192;BME280;43052;52.588;13.396;2023-03-31T11:01:42;99351.41;;;18.43;48.85
57192;BME280;43052;52.588;13.396;2023-03-31T11:06:56;99355.38;;;18.36;49.30
57192;BME280;43052;52.588;13.396;2023-03-31T11:09:50;99335.78;;;18.24;49.53
57192;BME280;43052;52.588;13.396;2023-03-31T11:12:28;99341.53;;;18.31;49.08
57192;BME280;43052;52.588;13.396;2023-03-31T11:15:29;99329.56;;;18.40;48.10
57192;BME280;43052;52.588;13.396;2023-03-31T11:18:11;99340.75;;;19.03;47.35
57192;BME280;43052;52.588;13.396;2023-03-31T11:23:39;99339.22;;;19.95;45.67
57192;BME280;43052;52.588;13.396;2023-03-31T11:26:27;99318.16;;;19.52;45.03
57192;BME280;43052;52.588;13.396;2023-03-31T11:29:02;99309.38;;;19.24;45.91
57192;BME280;43052;52.588;13.396;2023-03-31T11:34:28;99329.03;;;19.20;46.11
57192;BME280;43052;52.588;13.396;2023-03-31T11:40:22;99312.84;;;18.97;45.53
57192;BME280;43052;52.588;13.396;2023-03-31T11:45:48;99284.41;;;19.14;45.51
57192;BME280;43052;52.588;13.396;2023-03-31T11:51:30;99271.00;;;19.57;44.37
57192;BME280;43052;52.588;13.396;2023-03-31T11:54:00;99276.63;;;19.65;44.44
57192;BME280;43052;52.588;13.396;2023-03-31T11:56:35;99283.19;;;19.87;44.41
57192;BME280;43052;52.588;13.396;2023-03-31T11:59:02;99274.47;;;19.85;44.14
57192;BME280;43052;52.588;13.396;2023-03-31T12:06:43;99261.72;;;19.90;43.13
57192;BME280;43052;52.588;13.396;2023-03-31T12:09:35;99264.19;;;19.93;43.65
57192;BME280;43052;52.588;13.396;2023-03-31T12:12:20;99257.69;;;19.97;44.01
57192;BME280;43052;52.588;13.396;2023-03-31T12:14:58;99250.91;;;19.93;44.03
57192;BME280;43052;52.588;13.396;2023-03-31T12:17:26;99234.41;;;19.75;44.10
57192;BME280;43052;52.588;13.396;2023-03-31T12:19:56;99242.84;;;19.41;44.65
57192;BME280;43052;52.588;13.396;2023-03-31T12:22:35;99246.22;;;19.03;45.27
57192;BME280;43052;52.588;13.396;2023-03-31T12:25:04;99241.47;;;18.67;46.60
57192;BME280;43052;52.588;13.396;2023-03-31T12:27:38;99243.66;;;18.16;47.63
57192;BME280;43052;52.588;13.396;2023-03-31T12:32:33;99258.88;;;16.73;52.48
57192;BME280;43052;52.588;13.396;2023-03-31T12:35:21;99259.94;;;15.86;54.74
57192;BME280;43052;52.588;13.396;2023-03-31T12:41:08;99226.03;;;15.43;57.26
57192;BME280;43052;52.588;13.396;2023-03-31T12:44:12;99233.69;;;15.83;57.31
57192;BME280;43052;52.588;13.396;2023-03-31T12:46:49;99235.09;;;16.08;56.94
57192;BME280;43052;52.588;13.396;2023-03-31T12:52:40;99222.88;;;16.23;58.69
57192;BME280;43052;52.588;13.396;2023-03-31T12:58:34;99209.72;;;16.05;59.02
57192;BME280;43052;52.588;13.396;2023-03-31T13:01:18;99217.28;;;15.78;59.11
57192;BME280;43052;52.588;13.396;2023-03-31T13:03:48;99201.56;;;15.59;59.52
57192;BME280;43052;52.588;13.396;2023-03-31T13:14:10;99226.91;;;14.51;61.82
57192;BME280;43052;52.588;13.396;2023-03-31T13:16:37;99219.56;;;13.99;62.28
57192;BME280;43052;52.588;13.396;2023-03-31T13:19:03;99206.28;;;13.62;63.18
57192;BME280;43052;52.588;13.396;2023-03-31T13:21:29;99214.22;;;13.40;63.65
57192;BME280;43052;52.588;13.396;2023-03-31T13:23:59;99211.81;;;13.34;64.09
57192;BME280;43052;52.588;13.396;2023-03-31T13:34:28;99203.63;;;13.42;64.99
57192;BME280;43052;52.588;13.396;2023-03-31T13:37:15;99205.66;;;13.35;65.63
57192;BME280;43052;52.588;13.396;2023-03-31T13:40:02;99203.44;;;13.24;65.99
57192;BME280;43052;52.588;13.396;2023-03-31T13:42:44;99205.50;;;13.18;66.07
57192;BME280;43052;52.588;13.396;2023-03-31T13:47:53;99202.91;;;13.16;66.76
57192;BME280;43052;52.588;13.396;2023-03-31T13:50:38;99209.81;;;13.19;67.25
57192;BME280;43052;52.588;13.396;2023-03-31T13:59:21;99207.09;;;12.99;67.84
57192;BME280;43052;52.588;13.396;2023-03-31T14:02:26;99184.91;;;12.86;68.15
57192;BME280;43052;52.588;13.396;2023-03-31T14:07:49;99201.72;;;13.03;67.98
57192;BME280;43052;52.588;13.396;2023-03-31T14:10:23;99177.22;;;12.81;68.08
57192;BME280;43052;52.588;13.396;2023-03-31T14:12:50;99179.13;;;12.76;68.34
57192;BME280;43052;52.588;13.396;2023-03-31T14:15:18;99174.25;;;12.67;68.35
57192;BME280;43052;52.588;13.396;2023-03-31T14:17:45;99187.72;;;12.58;68.80
57192;BME280;43052;52.588;13.396;2023-03-31T14:23:22;99197.00;;;12.44;69.32
57192;BME280;43052;52.588;13.396;2023-03-31T14:26:00;99199.16;;;12.33;69.53
57192;BME280;43052;52.588;13.396;2023-03-31T14:31:28;99192.19;;;12.32;68.98
57192;BME280;43052;52.588;13.396;2023-03-31T14:34:21;99203.81;;;12.48;69.25
57192;BME280;43052;52.588;13.396;2023-03-31T14:37:00;99190.53;;;12.53;68.74
57192;BME280;43052;52.588;13.396;2023-03-31T14:39:30;99194.88;;;12.54;68.61
57192;BME280;43052;52.588;13.396;2023-03-31T14:42:03;99190.69;;;12.48;68.31
57192;BME280;43052;52.588;13.396;2023-03-31T14:44:30;99176.31;;;12.36;68.33
57192;BME280;43052;52.588;13.396;2023-03-31T14:46:57;99184.31;;;12.33;68.61
57192;BME280;43052;52.588;13.396;2023-03-31T14:49:27;99174.94;;;12.26;68.78
57192;BME280;43052;52.588;13.396;2023-03-31T14:51:57;99178.75;;;12.41;68.41
57192;BME280;43052;52.588;13.396;2023-03-31T14:54:24;99179.63;;;12.42;68.34